Time;durP1;ratioP1;P1;durP2;ratioP2;P2;SDS_P1;SDS_P2;PMS_P1;PMS_P2;Temp;Humidity;BMP_temperature;BMP_pressure;BME280_temperature;BME280_humidity;BME280_pressure;Samples;Min_cycle;Max_cycle;Signal;HPM_P1;HPM_P2
2021/04/22 00:00:21;;;;;;;4.23;0.50;;;6.20;61.00;;;;;;4867066;29;20049;-71
2021/04/22 00:02:48;;;;;;;2.73;0.50;;;6.10;61.10;;;;;;4875145;29;20041;-71
2021/04/22 00:05:29;;;;;;;3.73;0.50;;;6.10;61.20;;;;;;4881778;29;20072;-71
2021/04/22 00:07:57;;;;;;;4.00;0.50;;;6.10;61.30;;;;;;4887599;29;20037;-71
2021/04/22 00:10:29;;;;;;;3.57;0.67;;;6.00;61.40;;;;;;4880121;29;20549;-71
2021/04/22 00:12:55;;;;;;;1.83;0.40;;;6.00;61.40;;;;;;4871689;29;20504;-71
2021/04/22 00:15:22;;;;;;;6.33;0.50;;;6.00;61.50;;;;;;4894697;29;20045;-71
2021/04/22 00:17:53;;;;;;;2.87;0.50;;;5.90;61.50;;;;;;4903152;29;20048;-71
2021/04/22 00:20:20;;;;;;;4.90;0.60;;;5.90;61.60;;;;;;4877467;29;20409;-71
2021/04/22 00:22:48;;;;;;;1.53;0.33;;;5.90;62.00;;;;;;4894884;29;20041;-71
2021/04/22 00:25:15;;;;;;;3.50;0.47;;;5.90;61.70;;;;;;4881624;29;20485;-71
2021/04/22 00:27:42;;;;;;;3.60;0.50;;;5.90;61.70;;;;;;4887752;29;20069;-71
2021/04/22 00:30:11;;;;;;;2.20;0.40;;;5.90;61.70;;;;;;4893930;29;20069;-71
2021/04/22 00:32:39;;;;;;;3.50;0.60;;;5.90;61.80;;;;;;4883171;29;20040;-71
2021/04/22 00:35:08;;;;;;;3.13;0.60;;;5.90;61.80;;;;;;4893588;29;20552;-71
2021/04/22 00:37:34;;;;;;;4.83;0.60;;;5.90;62.00;;;;;;4860127;29;20045;-72
2021/04/22 00:40:14;;;;;;;12.33;0.77;;;5.90;62.00;;;;;;4874630;29;20061;-71
2021/04/22 00:42:41;;;;;;;1.80;0.47;;;5.90;61.90;;;;;;4905077;29;20041;-71
2021/04/22 00:45:08;;;;;;;1.63;0.50;;;5.90;62.50;;;;;;4850509;29;20092;-70
2021/04/22 00:47:36;;;;;;;1.07;0.30;;;5.90;61.90;;;;;;4885438;29;20053;-69
2021/04/22 00:50:28;;;;;;;3.27;0.50;;;5.80;61.90;;;;;;4865058;29;20128;-69
2021/04/22 00:52:57;;;;;;;5.90;0.50;;;5.90;62.00;;;;;;4870353;29;20048;-70
2021/04/22 00:55:25;;;;;;;6.27;0.50;;;5.80;62.00;;;;;;4894212;29;20037;-69
2021/04/22 00:57:53;;;;;;;2.63;0.53;;;5.80;62.10;;;;;;4893839;29;20049;-69
2021/04/22 01:00:23;;;;;;;3.90;0.93;;;5.80;62.10;;;;;;4880336;29;20108;-69
2021/04/22 01:02:51;;;;;;;2.60;0.40;;;5.80;62.20;;;;;;4882597;29;20104;-70
2021/04/22 01:05:23;;;;;;;3.00;0.40;;;5.80;62.20;;;;;;4880569;29;20048;-69
2021/04/22 01:07:49;;;;;;;1.50;0.40;;;5.70;62.20;;;;;;4879975;29;20108;-69
2021/04/22 01:10:18;;;;;;;4.10;0.97;;;5.70;62.30;;;;;;4858557;29;20052;-69
2021/04/22 01:12:45;;;;;;;2.90;0.40;;;5.70;62.40;;;;;;4901462;29;20096;-69
2021/04/22 01:15:18;;;;;;;1.37;0.30;;;5.70;62.40;;;;;;4890998;29;20446;-70
2021/04/22 01:17:45;;;;;;;1.60;0.47;;;5.70;62.50;;;;;;4892278;29;20049;-69
2021/04/22 01:20:17;;;;;;;2.10;0.40;;;5.60;62.50;;;;;;4890810;29;20049;-69
2021/04/22 01:22:45;;;;;;;3.53;0.50;;;5.60;62.60;;;;;;4879043;29;20052;-69
2021/04/22 01:25:15;;;;;;;3.23;0.70;;;5.60;62.70;;;;;;4876935;29;20049;-69
2021/04/22 01:27:43;;;;;;;1.97;0.30;;;5.50;62.70;;;;;;4895432;29;20044;-69
2021/04/22 01:30:15;;;;;;;2.40;0.40;;;5.50;62.90;;;;;;4896941;29;20096;-69
2021/04/22 01:32:41;;;;;;;0.73;0.20;;;5.50;63.00;;;;;;4891288;29;20045;-69
2021/04/22 01:35:12;;;;;;;3.00;0.40;;;5.50;62.90;;;;;;4875983;29;20289;-70
2021/04/22 01:37:39;;;;;;;2.80;0.50;;;5.50;62.90;;;;;;4880226;29;20041;-69
2021/04/22 01:40:07;;;;;;;3.13;0.50;;;5.50;63.00;;;;;;4878022;29;20120;-70
2021/04/22 01:42:34;;;;;;;2.37;0.70;;;5.50;63.10;;;;;;4895830;29;20040;-69
2021/04/22 01:45:00;;;;;;;3.33;0.70;;;5.50;63.10;;;;;;4861780;29;20044;-69
2021/04/22 01:47:27;;;;;;;1.10;0.40;;;5.50;63.20;;;;;;4885372;29;20036;-69
2021/04/22 01:49:54;;;;;;;3.43;0.60;;;5.40;63.80;;;;;;4878511;29;20068;-71
2021/04/22 01:52:20;;;;;;;3.07;0.60;;;5.40;63.20;;;;;;4848224;29;20060;-71
2021/04/22 01:54:47;;;;;;;2.73;0.40;;;5.40;63.30;;;;;;4894135;29;20040;-71
2021/04/22 01:57:13;;;;;;;3.63;0.57;;;5.40;63.40;;;;;;4891370;29;20040;-71
2021/04/22 01:59:40;;;;;;;1.87;0.50;;;5.40;63.40;;;;;;4884044;29;20056;-71
2021/04/22 02:02:07;;;;;;;9.00;0.70;;;5.40;63.50;;;;;;4891228;29;20116;-71
2021/04/22 02:04:33;;;;;;;2.43;0.50;;;5.40;63.60;;;;;;4883441;29;20123;-71
2021/04/22 02:07:01;;;;;;;3.20;0.40;;;5.30;63.60;;;;;;4871721;29;20048;-71
2021/04/22 02:09:27;;;;;;;3.33;0.93;;;5.30;63.60;;;;;;4863455;29;20537;-71
2021/04/22 02:11:54;;;;;;;2.90;0.60;;;5.30;63.60;;;;;;4891408;29;20044;-71
2021/04/22 02:14:21;;;;;;;3.10;0.43;;;5.30;63.70;;;;;;4894464;29;20048;-71
2021/04/22 02:16:47;;;;;;;3.07;0.50;;;5.30;63.70;;;;;;4859411;29;20041;-71
2021/04/22 02:19:14;;;;;;;1.67;0.53;;;5.30;63.70;;;;;;4857794;29;20041;-71
2021/04/22 02:21:40;;;;;;;4.10;0.83;;;5.30;63.80;;;;;;4860700;29;20497;-71
2021/04/22 02:24:07;;;;;;;2.77;0.93;;;5.20;63.90;;;;;;4884679;29;20049;-71
2021/04/22 02:26:34;;;;;;;2.37;0.40;;;5.20;64.00;;;;;;4883204;29;20044;-71
2021/04/22 02:29:01;;;;;;;1.03;0.30;;;5.10;64.00;;;;;;4881064;29;20052;-71
2021/04/22 02:31:27;;;;;;;2.20;0.40;;;5.10;64.10;;;;;;4861388;29;20109;-71
2021/04/22 02:33:54;;;;;;;2.50;0.60;;;5.10;64.80;;;;;;4877167;29;20036;-71
2021/04/22 02:36:21;;;;;;;6.37;1.17;;;5.00;64.30;;;;;;4894113;29;20049;-71
2021/04/22 02:38:48;;;;;;;3.20;0.50;;;5.00;64.30;;;;;;4860726;29;20085;-71
2021/04/22 02:41:15;;;;;;;2.90;0.40;;;5.00;64.50;;;;;;4890112;29;20049;-71
2021/04/22 02:43:42;;;;;;;2.17;0.70;;;5.00;64.60;;;;;;4894817;29;20107;-71
2021/04/22 02:46:08;;;;;;;2.57;0.53;;;5.00;64.70;;;;;;4895622;29;20040;-69
2021/04/22 02:48:35;;;;;;;2.13;0.40;;;5.00;64.70;;;;;;4884535;29;20045;-71
2021/04/22 02:51:03;;;;;;;2.20;0.60;;;4.90;64.70;;;;;;4868093;29;20051;-71
2021/04/22 02:53:30;;;;;;;2.47;0.70;;;4.90;64.80;;;;;;4872330;29;20057;-71
2021/04/22 02:55:56;;;;;;;4.20;0.80;;;4.90;65.00;;;;;;4862317;29;20051;-72
2021/04/22 02:58:26;;;;;;;1.73;0.40;;;4.90;65.00;;;;;;4894286;29;20055;-71
2021/04/22 03:00:54;;;;;;;4.00;0.60;;;4.80;65.00;;;;;;4890114;29;20485;-71
2021/04/22 03:03:21;;;;;;;1.63;0.40;;;4.90;65.70;;;;;;4876305;29;20120;-71
2021/04/22 03:05:48;;;;;;;2.30;0.30;;;4.90;65.20;;;;;;4878571;29;20048;-71
2021/04/22 03:08:15;;;;;;;3.03;0.70;;;4.80;65.10;;;;;;4890630;29;20037;-71
2021/04/22 03:10:43;;;;;;;1.40;0.20;;;4.90;65.20;;;;;;4876723;29;20085;-71
2021/04/22 03:13:11;;;;;;;2.90;0.70;;;4.80;65.20;;;;;;4878560;29;20374;-71
2021/04/22 03:15:37;;;;;;;1.77;0.53;;;4.80;65.30;;;;;;4867890;29;20064;-71
2021/04/22 03:18:08;;;;;;;3.60;0.50;;;4.90;65.30;;;;;;4879163;29;20144;-71
2021/04/22 03:20:35;;;;;;;1.43;0.40;;;4.80;65.20;;;;;;4894595;29;20127;-71
2021/04/22 03:23:02;;;;;;;2.03;0.30;;;4.90;65.30;;;;;;4895193;29;20056;-71
2021/04/22 03:25:29;;;;;;;2.97;0.50;;;4.90;65.40;;;;;;4885070;29;20041;-71
2021/04/22 03:27:56;;;;;;;3.83;0.40;;;4.90;65.40;;;;;;4876055;29;20497;-71
2021/04/22 03:30:25;;;;;;;3.70;0.60;;;4.90;65.50;;;;;;4867493;29;20045;-71
2021/04/22 03:32:52;;;;;;;2.67;0.60;;;4.90;65.60;;;;;;4887885;29;20063;-71
2021/04/22 03:35:19;;;;;;;2.13;0.40;;;4.80;65.70;;;;;;4889465;29;20041;-71
2021/04/22 03:37:46;;;;;;;3.33;0.60;;;4.80;65.70;;;;;;4881063;29;20396;-71
2021/04/22 03:40:14;;;;;;;3.03;0.50;;;4.80;65.80;;;;;;4880465;29;20053;-71
2021/04/22 03:42:41;;;;;;;3.03;0.50;;;4.80;65.80;;;;;;4898106;29;20059;-71
2021/04/22 03:45:10;;;;;;;3.60;0.50;;;4.80;65.90;;;;;;4877249;29;20124;-71
2021/04/22 03:47:36;;;;;;;3.37;0.70;;;4.80;65.90;;;;;;4878274;29;20438;-71
2021/04/22 03:50:06;;;;;;;6.03;1.23;;;4.80;65.90;;;;;;4898867;29;20109;-71
2021/04/22 03:52:32;;;;;;;2.23;0.70;;;4.80;66.10;;;;;;4881907;29;20041;-73
2021/04/22 03:54:59;;;;;;;2.73;0.40;;;4.70;66.00;;;;;;4897560;29;20045;-73
2021/04/22 03:57:26;;;;;;;4.03;0.77;;;4.80;66.10;;;;;;4881394;29;20045;-72
2021/04/22 03:59:52;;;;;;;3.57;0.40;;;4.80;66.80;;;;;;4891522;29;20064;-72
2021/04/22 04:02:19;;;;;;;3.87;0.30;;;4.80;66.10;;;;;;4894493;29;20049;-72
2021/04/22 04:04:46;;;;;;;1.80;0.40;;;4.80;66.10;;;;;;4873304;29;20417;-71
2021/04/22 04:07:13;;;;;;;1.97;0.40;;;4.80;66.00;;;;;;4882266;29;20056;-72
2021/04/22 04:09:39;;;;;;;5.97;0.60;;;4.90;66.00;;;;;;4879547;29;20238;-72
2021/04/22 04:12:07;;;;;;;2.57;0.40;;;4.90;66.00;;;;;;4886949;29;20052;-71
2021/04/22 04:14:35;;;;;;;3.80;0.50;;;5.00;66.00;;;;;;4888356;29;20053;-72
2021/04/22 04:17:03;;;;;;;3.00;0.53;;;5.00;66.00;;;;;;4884631;29;20056;-72
2021/04/22 04:19:30;;;;;;;4.77;0.30;;;5.00;65.80;;;;;;4868453;29;20505;-72
2021/04/22 04:21:56;;;;;;;3.03;0.43;;;5.10;65.80;;;;;;4882437;29;20060;-73
2021/04/22 04:24:23;;;;;;;2.03;0.40;;;5.10;65.70;;;;;;4891388;29;20041;-73
2021/04/22 04:26:49;;;;;;;2.33;0.37;;;5.20;65.60;;;;;;4871604;29;20041;-72
2021/04/22 04:29:16;;;;;;;1.27;0.30;;;5.20;65.50;;;;;;4882201;29;20048;-72
2021/04/22 04:31:42;;;;;;;3.50;0.57;;;5.30;65.40;;;;;;4863838;29;20081;-71
2021/04/22 04:34:09;;;;;;;3.27;0.40;;;5.30;65.30;;;;;;4892541;29;20485;-71
2021/04/22 04:36:35;;;;;;;1.80;0.30;;;5.30;65.20;;;;;;4878928;29;20044;-72
2021/04/22 04:39:02;;;;;;;4.53;0.40;;;5.40;65.10;;;;;;4882243;29;20052;-72
2021/04/22 04:41:29;;;;;;;1.37;0.13;;;5.40;65.00;;;;;;4893403;29;20158;-72
2021/04/22 04:43:55;;;;;;;4.33;0.50;;;5.40;64.90;;;;;;4863938;29;20053;-71
2021/04/22 04:46:23;;;;;;;0.37;0.17;;;5.50;64.80;;;;;;4893190;29;20041;-71
2021/04/22 04:48:49;;;;;;;3.37;0.40;;;5.50;64.70;;;;;;4877769;29;20056;-72
2021/04/22 04:51:16;;;;;;;3.47;0.40;;;5.50;64.60;;;;;;4858810;29;20411;-71
2021/04/22 04:53:44;;;;;;;2.43;0.33;;;5.60;64.50;;;;;;4886624;29;20048;-71
2021/04/22 04:56:10;;;;;;;2.37;0.60;;;5.60;64.40;;;;;;4880766;29;20049;-71
2021/04/22 04:58:37;;;;;;;3.33;0.60;;;5.60;64.20;;;;;;4886427;29;20485;-72
2021/04/22 05:01:03;;;;;;;3.30;0.40;;;5.60;64.70;;;;;;4874652;29;20056;-72
2021/04/22 05:03:30;;;;;;;1.40;0.30;;;5.70;64.10;;;;;;4872249;29;20048;-71
2021/04/22 05:05:56;;;;;;;2.57;0.30;;;5.70;64.00;;;;;;4896117;29;20412;-72
2021/04/22 05:08:23;;;;;;;1.90;0.30;;;5.70;64.00;;;;;;4874527;29;20449;-71
2021/04/22 05:10:49;;;;;;;1.83;0.43;;;5.80;64.00;;;;;;4872981;29;20104;-71
2021/04/22 05:13:16;;;;;;;1.30;0.20;;;5.80;63.90;;;;;;4897473;29;20062;-71
2021/04/22 05:15:42;;;;;;;1.03;0.30;;;5.80;63.90;;;;;;4896597;29;20049;-71
2021/04/22 05:18:09;;;;;;;0.83;0.20;;;5.80;63.80;;;;;;4879808;29;20056;-72
2021/04/22 05:20:36;;;;;;;1.93;0.33;;;5.80;63.80;;;;;;4897373;29;20063;-74
2021/04/22 05:23:02;;;;;;;2.73;0.40;;;5.80;63.70;;;;;;4864646;29;20048;-72
2021/04/22 05:25:29;;;;;;;2.90;0.50;;;5.80;63.60;;;;;;4843013;29;20057;-73
2021/04/22 05:27:56;;;;;;;1.27;0.37;;;5.80;63.60;;;;;;4860096;29;20061;-72
2021/04/22 05:30:24;;;;;;;1.37;0.30;;;5.80;63.60;;;;;;4885057;29;20056;-72
2021/04/22 05:32:50;;;;;;;3.77;1.03;;;5.90;63.60;;;;;;4889022;29;20037;-72
2021/04/22 05:35:17;;;;;;;1.60;0.40;;;5.90;63.60;;;;;;4893403;29;20052;-72
2021/04/22 05:37:49;;;;;;;4.40;0.90;;;5.90;63.50;;;;;;4897042;29;20060;-72
2021/04/22 05:40:17;;;;;;;5.37;0.63;;;5.90;63.50;;;;;;4895627;29;20803;-72
2021/04/22 05:42:43;;;;;;;3.27;0.37;;;5.90;63.40;;;;;;4875734;29;20064;-72
2021/04/22 05:45:14;;;;;;;2.70;0.57;;;5.90;63.40;;;;;;4881544;29;20055;-73
2021/04/22 05:47:41;;;;;;;1.07;0.23;;;5.90;63.30;;;;;;4863162;29;20048;-73
2021/04/22 05:50:08;;;;;;;2.63;0.50;;;6.00;64.00;;;;;;4876955;29;20057;-73
2021/04/22 05:52:35;;;;;;;2.20;0.60;;;6.00;63.30;;;;;;4870199;29;20049;-72
2021/04/22 05:55:03;;;;;;;2.00;0.33;;;6.00;63.20;;;;;;4881170;29;20485;-72
2021/04/22 05:57:30;;;;;;;1.13;0.50;;;6.10;63.20;;;;;;4877389;29;20478;-72
2021/04/22 05:59:57;;;;;;;0.90;0.30;;;6.10;63.20;;;;;;4871938;29;20049;-72
2021/04/22 06:02:24;;;;;;;1.70;0.30;;;6.20;63.10;;;;;;4876331;29;20052;-73
2021/04/22 06:04:51;;;;;;;1.97;0.50;;;6.20;63.10;;;;;;4884190;29;20501;-72
2021/04/22 06:07:18;;;;;;;1.13;0.30;;;6.40;63.00;;;;;;4870677;29;20049;-72
2021/04/22 06:09:45;;;;;;;1.97;0.20;;;6.50;62.90;;;;;;4874489;29;20059;-72
2021/04/22 06:12:12;;;;;;;1.33;0.40;;;6.70;62.50;;;;;;4891079;29;20545;-72
2021/04/22 06:14:38;;;;;;;1.77;0.20;;;6.90;62.20;;;;;;4879341;29;20758;-72
2021/04/22 06:17:05;;;;;;;5.00;0.57;;;7.10;62.00;;;;;;4887475;29;20489;-72
2021/04/22 06:19:31;;;;;;;2.63;0.27;;;7.10;61.70;;;;;;4871043;29;20083;-70
2021/04/22 06:21:58;;;;;;;2.00;0.40;;;7.20;61.60;;;;;;4878524;29;20061;-72
2021/04/22 06:24:25;;;;;;;1.47;0.20;;;7.30;61.50;;;;;;4883781;29;20072;-72
2021/04/22 06:26:51;;;;;;;2.67;0.30;;;7.40;61.40;;;;;;4882962;29;20446;-70
2021/04/22 06:29:18;;;;;;;1.20;0.20;;;7.50;61.30;;;;;;4886160;29;20419;-70
2021/04/22 06:31:47;;;;;;;1.97;0.30;;;7.60;61.20;;;;;;4892857;29;21738;-70
2021/04/22 06:34:15;;;;;;;0.97;0.23;;;7.70;61.00;;;;;;4892373;29;20044;-70
2021/04/22 06:36:43;;;;;;;0.77;0.30;;;7.90;60.70;;;;;;4874162;29;20048;-70
2021/04/22 06:39:10;;;;;;;1.87;0.40;;;8.00;60.50;;;;;;4879330;29;20380;-70
2021/04/22 06:41:37;;;;;;;2.77;0.60;;;8.20;60.20;;;;;;4891747;29;20057;-72
2021/04/22 06:44:04;;;;;;;2.23;0.50;;;8.30;60.00;;;;;;4860991;29;20131;-76
2021/04/22 06:46:33;;;;;;;4.60;0.60;;;8.40;59.80;;;;;;4889239;29;20556;-71
2021/04/22 06:49:03;;;;;;;2.90;0.50;;;8.50;59.80;;;;;;4895616;29;20105;-74
2021/04/22 06:51:31;;;;;;;3.23;0.77;;;8.60;59.60;;;;;;4881184;29;20052;-72
2021/04/22 06:53:57;;;;;;;2.37;0.50;;;8.60;59.20;;;;;;4884043;29;20044;-73
2021/04/22 06:56:24;;;;;;;5.77;0.57;;;8.60;59.00;;;;;;4869287;29;20147;-72
2021/04/22 06:58:50;;;;;;;5.73;0.60;;;8.70;59.00;;;;;;4892451;29;20505;-72
2021/04/22 07:01:17;;;;;;;1.80;0.40;;;8.80;58.90;;;;;;4868331;29;20421;-72
2021/04/22 07:03:43;;;;;;;3.20;0.70;;;8.70;58.60;;;;;;4876454;29;20052;-72
2021/04/22 07:06:11;;;;;;;3.93;0.60;;;8.70;58.50;;;;;;4889569;29;20056;-71
2021/04/22 07:08:40;;;;;;;4.33;0.50;;;8.60;58.70;;;;;;4895451;29;20048;-72
2021/04/22 07:11:07;;;;;;;2.87;0.57;;;8.60;58.80;;;;;;4889727;29;20053;-71
2021/04/22 07:13:33;;;;;;;8.40;0.60;;;8.60;58.90;;;;;;4868915;29;20061;-73
2021/04/22 07:16:00;;;;;;;2.47;0.40;;;8.70;58.90;;;;;;4881416;29;20049;-71
2021/04/22 07:18:26;;;;;;;2.67;0.60;;;8.60;58.80;;;;;;4870645;29;20474;-71
2021/04/22 07:20:53;;;;;;;3.70;0.50;;;8.60;58.70;;;;;;4865071;29;20064;-71
2021/04/22 07:23:20;;;;;;;2.20;0.63;;;8.70;58.80;;;;;;4892290;29;20048;-71
2021/04/22 07:25:48;;;;;;;1.70;0.37;;;8.80;58.70;;;;;;4889519;29;20056;-72
2021/04/22 07:28:15;;;;;;;1.43;0.80;;;8.90;58.40;;;;;;4881798;29;20045;-72
2021/04/22 07:30:42;;;;;;;3.55;0.70;;;9.00;58.00;;;;;;4863438;29;20500;-72
2021/04/22 07:33:09;;;;;;;4.65;0.68;;;9.00;57.70;;;;;;4881604;29;20049;-72
2021/04/22 07:35:37;;;;;;;1.85;0.43;;;9.00;57.70;;;;;;4897455;29;20045;-72
2021/04/22 07:38:07;;;;;;;4.53;0.70;;;8.90;57.80;;;;;;4897272;29;20074;-72
2021/04/22 07:40:34;;;;;;;2.73;0.80;;;8.90;57.40;;;;;;4876524;29;20462;-72
2021/04/22 07:43:00;;;;;;;3.27;1.03;;;8.90;57.50;;;;;;4891525;29;20482;-72
2021/04/22 07:45:30;;;;;;;4.22;0.60;;;8.90;57.70;;;;;;4899350;29;20393;-72
2021/04/22 07:47:59;;;;;;;4.80;0.50;;;8.90;57.60;;;;;;4882627;29;20052;-72
2021/04/22 07:50:26;;;;;;;2.35;0.43;;;8.90;57.50;;;;;;4898491;29;20048;-72
2021/04/22 07:52:53;;;;;;;2.17;0.57;;;9.00;57.40;;;;;;4899392;29;20088;-72
2021/04/22 07:55:24;;;;;;;1.73;0.27;;;9.00;57.40;;;;;;4882344;29;20100;-73
2021/04/22 07:57:50;;;;;;;3.45;0.55;;;9.10;57.60;;;;;;4899451;29;20505;-73
2021/04/22 08:00:20;;;;;;;3.40;0.50;;;9.20;57.30;;;;;;4898532;29;20104;-73
2021/04/22 08:02:49;;;;;;;1.80;0.40;;;9.30;57.10;;;;;;4874877;29;20044;-73
2021/04/22 08:05:20;;;;;;;16.90;1.00;;;9.30;57.00;;;;;;4882835;29;20048;-73
2021/04/22 08:08:05;;;;;;;3.10;0.77;;;9.40;56.70;;;;;;4899736;29;20132;-73
2021/04/22 08:10:33;;;;;;;1.53;0.50;;;9.50;56.40;;;;;;4898759;29;20052;-70
2021/04/22 08:13:03;;;;;;;4.37;0.60;;;9.80;56.30;;;;;;4880847;29;20104;-71
2021/04/22 08:15:32;;;;;;;2.47;0.70;;;9.90;55.50;;;;;;4882718;29;20112;-70
2021/04/22 08:17:59;;;;;;;4.32;0.55;;;9.90;55.70;;;;;;4882199;29;20048;-70
2021/04/22 08:20:26;;;;;;;2.60;0.60;;;9.90;55.70;;;;;;4882371;29;20053;-70
2021/04/22 08:22:56;;;;;;;2.42;0.60;;;9.90;55.60;;;;;;4898118;29;20397;-70
2021/04/22 08:25:32;;;;;;;4.25;0.80;;;9.90;55.70;;;;;;4898837;29;20048;-70
2021/04/22 08:27:59;;;;;;;3.35;0.60;;;9.90;55.60;;;;;;4898706;29;20519;-70
2021/04/22 08:30:44;;;;;;;3.00;0.52;;;9.90;55.30;;;;;;4898822;29;20068;-71
2021/04/22 08:33:14;;;;;;;3.42;0.70;;;10.00;55.30;;;;;;4885611;29;20052;-70
2021/04/22 08:35:42;;;;;;;1.75;0.45;;;10.30;54.80;;;;;;4898883;29;20088;-70
2021/04/22 08:38:11;;;;;;;3.03;0.60;;;10.60;54.50;;;;;;4888114;29;20044;-70
2021/04/22 08:40:39;;;;;;;2.20;0.38;;;10.90;53.90;;;;;;4881596;29;20123;-70
2021/04/22 08:43:06;;;;;;;2.55;0.40;;;11.10;53.60;;;;;;4879900;29;20400;-70
2021/04/22 08:45:33;;;;;;;3.28;0.70;;;11.20;53.30;;;;;;4868384;29;20056;-70
2021/04/22 08:48:00;;;;;;;3.35;0.70;;;11.20;52.80;;;;;;4891766;29;20204;-70
2021/04/22 08:50:31;;;;;;;1.77;0.55;;;11.10;52.90;;;;;;4886096;29;20132;-70
2021/04/22 08:53:00;;;;;;;4.43;0.43;;;11.00;53.20;;;;;;4892873;29;20052;-71
2021/04/22 08:55:31;;;;;;;2.38;0.70;;;10.90;53.20;;;;;;4893705;29;20050;-70
2021/04/22 08:58:00;;;;;;;2.63;0.52;;;10.80;53.20;;;;;;4890729;29;20101;-71
2021/04/22 09:00:31;;;;;;;2.25;0.40;;;10.70;53.20;;;;;;4876686;29;20139;-70
2021/04/22 09:02:58;;;;;;;3.25;0.75;;;10.60;53.20;;;;;;4888245;29;20072;-70
2021/04/22 09:05:25;;;;;;;3.45;0.60;;;10.60;53.10;;;;;;4894100;29;20044;-70
2021/04/22 09:07:52;;;;;;;5.63;0.70;;;10.50;52.90;;;;;;4894989;29;20408;-70
2021/04/22 09:10:24;;;;;;;3.22;0.70;;;10.40;52.90;;;;;;4894915;29;20100;-70
2021/04/22 09:13:17;;;;;;;3.60;0.65;;;10.40;53.00;;;;;;4878036;29;20128;-69
2021/04/22 09:15:48;;;;;;;2.25;0.60;;;10.40;53.60;;;;;;4891683;29;20532;-71
2021/04/22 09:18:24;;;;;;;1.88;0.60;;;10.50;52.90;;;;;;4878229;29;20055;-70
2021/04/22 09:20:53;;;;;;;3.58;0.63;;;10.60;52.80;;;;;;4873325;29;20044;-69
2021/04/22 09:23:22;;;;;;;3.08;0.60;;;10.80;52.70;;;;;;4896344;29;20045;-70
2021/04/22 09:26:04;;;;;;;3.13;0.65;;;10.90;52.20;;;;;;4877721;29;20056;-70
2021/04/22 09:28:41;;;;;;;3.80;0.63;;;11.00;52.10;;;;;;4892799;29;20052;-70
2021/04/22 09:31:10;;;;;;;5.53;0.55;;;11.10;52.00;;;;;;4879698;29;20044;-72
2021/04/22 09:33:40;;;;;;;3.50;0.60;;;11.20;52.40;;;;;;4866411;29;20052;-72
2021/04/22 09:36:13;;;;;;;2.83;1.15;;;11.30;51.90;;;;;;4880712;29;20049;-72
2021/04/22 09:38:40;;;;;;;1.95;0.40;;;11.40;51.80;;;;;;4880731;29;20071;-72
2021/04/22 09:41:24;;;;;;;3.38;0.45;;;11.40;51.90;;;;;;4897027;29;20048;-72
2021/04/22 09:44:01;;;;;;;2.40;0.75;;;11.50;51.70;;;;;;4897837;29;20053;-72
2021/04/22 09:46:27;;;;;;;2.10;0.60;;;11.60;51.40;;;;;;4882780;29;20048;-72
2021/04/22 09:48:54;;;;;;;2.30;0.50;;;11.70;51.20;;;;;;4863811;29;20097;-72
2021/04/22 09:51:32;;;;;;;5.03;1.02;;;11.60;51.40;;;;;;4897170;29;20045;-72
2021/04/22 09:54:08;;;;;;;6.47;0.70;;;11.50;50.90;;;;;;4897260;29;20048;-71
2021/04/22 09:56:55;;;;;;;3.65;0.77;;;11.50;51.00;;;;;;4896426;29;20064;-71
2021/04/22 09:59:25;;;;;;;2.38;0.63;;;11.50;51.10;;;;;;4888216;29;20040;-71
2021/04/22 10:02:04;;;;;;;2.45;0.70;;;11.70;50.80;;;;;;4888343;29;20501;-71
2021/04/22 10:04:36;;;;;;;4.05;0.60;;;11.90;50.40;;;;;;4885336;29;20131;-71
2021/04/22 10:07:04;;;;;;;3.28;0.57;;;12.00;50.10;;;;;;4875314;29;20100;-71
2021/04/22 10:09:35;;;;;;;2.00;0.52;;;12.00;50.10;;;;;;4894940;29;20041;-71
2021/04/22 10:12:03;;;;;;;4.00;1.27;;;12.10;50.20;;;;;;4875676;29;20104;-71
2021/04/22 10:14:29;;;;;;;2.35;0.50;;;12.30;49.50;;;;;;4896666;29;20323;-71
2021/04/22 10:16:56;;;;;;;4.32;1.10;;;12.30;49.50;;;;;;4889589;29;20049;-71
2021/04/22 10:19:23;;;;;;;5.40;0.70;;;12.20;49.10;;;;;;4888613;29;20391;-71
2021/04/22 10:21:49;;;;;;;4.32;0.60;;;12.20;49.30;;;;;;4860946;29;20498;-70
2021/04/22 10:24:16;;;;;;;5.40;1.40;;;12.40;49.20;;;;;;4895284;29;20096;-72
2021/04/22 10:26:44;;;;;;;2.30;0.73;;;12.40;48.80;;;;;;4872561;29;20048;-70
2021/04/22 10:29:11;;;;;;;2.42;0.55;;;12.40;48.90;;;;;;4895951;29;20109;-71
2021/04/22 10:31:39;;;;;;;3.00;0.98;;;12.70;48.20;;;;;;4862955;29;20055;-70
2021/04/22 10:34:09;;;;;;;2.78;0.77;;;12.90;47.70;;;;;;4861525;29;20045;-70
2021/04/22 10:36:37;;;;;;;3.35;0.90;;;13.00;46.70;;;;;;4895046;29;20477;-70
2021/04/22 10:39:05;;;;;;;2.63;0.85;;;13.30;46.50;;;;;;4888969;29;20127;-70
2021/04/22 10:41:33;;;;;;;1.42;0.40;;;13.60;46.10;;;;;;4887117;29;20064;-71
2021/04/22 10:44:04;;;;;;;4.38;1.25;;;13.80;45.80;;;;;;4879626;29;20048;-71
2021/04/22 10:46:33;;;;;;;2.42;0.57;;;13.80;45.30;;;;;;4875383;29;20036;-71
2021/04/22 10:49:01;;;;;;;4.72;0.60;;;14.00;45.60;;;;;;4870062;29;20055;-70
2021/04/22 10:51:29;;;;;;;2.22;0.60;;;14.20;45.20;;;;;;4878062;29;20045;-71
2021/04/22 10:53:56;;;;;;;3.97;0.60;;;14.30;44.70;;;;;;4896385;29;20044;-71
2021/04/22 10:56:28;;;;;;;3.75;0.70;;;14.30;44.50;;;;;;4890452;29;20048;-71
2021/04/22 10:58:54;;;;;;;6.57;1.15;;;14.20;43.80;;;;;;4870062;29;20566;-71
2021/04/22 11:01:32;;;;;;;2.55;0.68;;;14.00;44.00;;;;;;4888426;29;20044;-71
2021/04/22 11:04:04;;;;;;;3.58;0.57;;;13.70;44.70;;;;;;4875824;29;20060;-71
2021/04/22 11:06:34;;;;;;;3.28;0.50;;;14.30;44.70;;;;;;4855053;29;20049;-71
2021/04/22 11:09:11;;;;;;;5.18;0.95;;;14.40;44.20;;;;;;4895080;29;20099;-71
2021/04/22 11:11:39;;;;;;;4.97;0.77;;;13.70;44.20;;;;;;4888105;29;20060;-70
2021/04/22 11:14:07;;;;;;;3.58;0.80;;;13.40;45.20;;;;;;4895404;29;20472;-70
2021/04/22 11:16:37;;;;;;;3.83;0.60;;;13.20;45.70;;;;;;4869295;29;20049;-70
2021/04/22 11:19:17;;;;;;;2.53;0.70;;;13.00;46.30;;;;;;4867478;29;20048;-71
2021/04/22 11:22:19;;;;;;;3.90;0.60;;;12.90;46.30;;;;;;4875675;29;20056;-70
2021/04/22 11:25:06;;;;;;;2.65;0.50;;;13.10;46.40;;;;;;4872635;29;20051;-70
2021/04/22 11:27:48;;;;;;;1.35;0.55;;;14.10;45.10;;;;;;4895480;29;20055;-73
2021/04/22 11:30:30;;;;;;;5.10;0.95;;;14.80;43.90;;;;;;4877394;29;20494;-72
2021/04/22 11:32:59;;;;;;;3.25;0.80;;;15.30;43.10;;;;;;4892103;29;20537;-72
2021/04/22 11:35:30;;;;;;;6.68;0.70;;;15.60;42.30;;;;;;4883200;29;20105;-71
2021/04/22 11:38:08;;;;;;;2.55;0.73;;;16.00;42.00;;;;;;4879161;29;20056;-71
2021/04/22 11:40:45;;;;;;;4.30;0.90;;;16.10;41.90;;;;;;4895628;29;20045;-72
2021/04/22 11:43:23;;;;;;;2.80;0.70;;;16.40;41.80;;;;;;4879256;29;20135;-72
2021/04/22 11:45:52;;;;;;;2.63;0.60;;;16.50;41.80;;;;;;4868277;29;20112;-72
2021/04/22 11:48:20;;;;;;;2.47;0.70;;;16.80;41.70;;;;;;4884394;29;20060;-72
2021/04/22 11:50:54;;;;;;;2.90;0.60;;;16.90;41.20;;;;;;4882829;29;20374;-71
2021/04/22 11:53:34;;;;;;;3.03;0.75;;;17.00;41.10;;;;;;4883918;29;20335;-70
2021/04/22 11:56:02;;;;;;;3.13;0.55;;;17.20;40.70;;;;;;4879560;29;20049;-70
2021/04/22 11:58:30;;;;;;;2.17;0.47;;;17.10;40.70;;;;;;4885967;29;20431;-71
2021/04/22 12:01:00;;;;;;;2.65;0.60;;;17.20;41.00;;;;;;4895007;29;20449;-74
2021/04/22 12:03:30;;;;;;;3.10;1.02;;;17.50;40.90;;;;;;4899376;29;20052;-73
2021/04/22 12:05:59;;;;;;;2.25;0.70;;;17.50;40.70;;;;;;4862873;29;20108;-72
2021/04/22 12:08:40;;;;;;;2.25;0.70;;;17.20;40.90;;;;;;4897581;29;20056;-72
2021/04/22 12:11:09;;;;;;;3.40;0.50;;;16.30;41.60;;;;;;4893525;29;20500;-73
2021/04/22 12:13:36;;;;;;;1.88;0.40;;;15.60;42.80;;;;;;4875627;29;20049;-73
2021/04/22 12:16:05;;;;;;;3.17;0.80;;;15.20;43.60;;;;;;4881576;29;20120;-72
2021/04/22 12:18:40;;;;;;;2.10;0.63;;;14.90;44.10;;;;;;4882042;29;20037;-72
2021/04/22 12:21:09;;;;;;;3.53;0.80;;;14.80;44.60;;;;;;4872746;29;20125;-72
2021/04/22 12:23:40;;;;;;;4.00;1.23;;;14.70;44.50;;;;;;4887032;29;20780;-73
2021/04/22 12:26:14;;;;;;;4.10;0.90;;;14.60;44.40;;;;;;4888055;29;20474;-73
2021/04/22 12:28:55;;;;;;;4.60;1.15;;;14.30;44.30;;;;;;4895582;29;20073;-72
2021/04/22 12:31:27;;;;;;;3.15;0.80;;;14.10;44.10;;;;;;4889453;29;20053;-72
2021/04/22 12:33:56;;;;;;;3.40;1.00;;;13.90;44.70;;;;;;4893559;29;20045;-72
2021/04/22 12:36:23;;;;;;;4.72;1.13;;;13.80;44.50;;;;;;4886159;29;20093;-72
2021/04/22 12:38:50;;;;;;;4.78;0.57;;;13.70;44.80;;;;;;4873995;29;20486;-74
2021/04/22 12:41:20;;;;;;;2.60;0.60;;;13.70;45.00;;;;;;4862629;29;20063;-74
2021/04/22 12:43:49;;;;;;;3.50;0.68;;;13.80;45.00;;;;;;4894109;29;20052;-73
2021/04/22 12:46:21;;;;;;;3.88;0.82;;;13.80;45.00;;;;;;4878178;29;20112;-73
2021/04/22 12:48:53;;;;;;;2.33;0.80;;;13.90;45.20;;;;;;4889829;29;20165;-72
2021/04/22 12:51:20;;;;;;;4.07;0.90;;;13.90;45.20;;;;;;4872391;29;20134;-72
2021/04/22 12:53:49;;;;;;;5.28;0.73;;;14.10;45.00;;;;;;4878997;29;20048;-72
2021/04/22 12:56:17;;;;;;;4.93;0.77;;;14.10;44.80;;;;;;4894908;29;20045;-73
2021/04/22 12:58:51;;;;;;;2.65;0.75;;;14.00;45.00;;;;;;4891066;29;20033;-73
2021/04/22 13:01:27;;;;;;;2.22;0.75;;;14.00;45.10;;;;;;4893074;29;20044;-73